sensor_id;sensor_type;location;lat;lon;timestamp;P1;durP1;ratioP1;P2;durP2;ratioP2
9082;SDS011;4577;48.704;9.000;2023-06-26T00:01:14;12.20;;;9.03;;
9082;SDS011;4577;48.704;9.000;2023-06-26T00:03:40;13.50;;;9.93;;
9082;SDS011;4577;48.704;9.000;2023-06-26T00:06:06;10.97;;;9.57;;
9082;SDS011;4577;48.704;9.000;2023-06-26T00:08:31;27.80;;;11.27;;
9082;SDS011;4577;48.704;9.000;2023-06-26T00:10:57;11.93;;;10.17;;
9082;SDS011;4577;48.704;9.000;2023-06-26T00:13:23;14.80;;;10.83;;
9082;SDS011;4577;48.704;9.000;2023-06-26T00:15:49;12.10;;;10.23;;
9082;SDS011;4577;48.704;9.000;2023-06-26T00:18:16;10.33;;;9.23;;
9082;SDS011;4577;48.704;9.000;2023-06-26T00:20:41;12.67;;;9.80;;
9082;SDS011;4577;48.704;9.000;2023-06-26T00:23:07;14.10;;;10.10;;
9082;SDS011;4577;48.704;9.000;2023-06-26T00:25:33;12.13;;;9.83;;
9082;SDS011;4577;48.704;9.000;2023-06-26T00:27:59;11.60;;;9.17;;
9082;SDS011;4577;48.704;9.000;2023-06-26T00:30:25;10.83;;;9.50;;
9082;SDS011;4577;48.704;9.000;2023-06-26T00:32:50;9.90;;;8.83;;
9082;SDS011;4577;48.704;9.000;2023-06-26T00:35:16;10.90;;;8.83;;
9082;SDS011;4577;48.704;9.000;2023-06-26T00:37:42;12.53;;;9.20;;
9082;SDS011;4577;48.704;9.000;2023-06-26T00:40:08;11.90;;;9.33;;
9082;SDS011;4577;48.704;9.000;2023-06-26T00:42:34;12.90;;;9.70;;
9082;SDS011;4577;48.704;9.000;2023-06-26T00:45:00;11.20;;;9.27;;
9082;SDS011;4577;48.704;9.000;2023-06-26T00:47:26;10.27;;;9.00;;
9082;SDS011;4577;48.704;9.000;2023-06-26T00:49:52;10.60;;;9.50;;
9082;SDS011;4577;48.704;9.000;2023-06-26T00:52:19;10.40;;;9.10;;
9082;SDS011;4577;48.704;9.000;2023-06-26T00:54:45;12.80;;;9.77;;
9082;SDS011;4577;48.704;9.000;2023-06-26T00:57:11;10.80;;;9.10;;
9082;SDS011;4577;48.704;9.000;2023-06-26T00:59:37;12.30;;;9.90;;
9082;SDS011;4577;48.704;9.000;2023-06-26T01:02:03;10.70;;;8.57;;
9082;SDS011;4577;48.704;9.000;2023-06-26T01:04:29;11.23;;;9.53;;
9082;SDS011;4577;48.704;9.000;2023-06-26T01:06:57;11.50;;;9.20;;
9082;SDS011;4577;48.704;9.000;2023-06-26T01:09:24;10.77;;;9.00;;
9082;SDS011;4577;48.704;9.000;2023-06-26T01:11:51;11.50;;;9.20;;
9082;SDS011;4577;48.704;9.000;2023-06-26T01:14:17;11.53;;;9.27;;
9082;SDS011;4577;48.704;9.000;2023-06-26T01:16:43;12.17;;;9.30;;
9082;SDS011;4577;48.704;9.000;2023-06-26T01:19:19;11.67;;;9.50;;
9082;SDS011;4577;48.704;9.000;2023-06-26T01:21:50;11.23;;;9.47;;
9082;SDS011;4577;48.704;9.000;2023-06-26T01:24:22;10.50;;;9.40;;
9082;SDS011;4577;48.704;9.000;2023-06-26T01:26:52;12.77;;;9.53;;
9082;SDS011;4577;48.704;9.000;2023-06-26T01:29:18;10.90;;;9.30;;
9082;SDS011;4577;48.704;9.000;2023-06-26T01:31:47;12.70;;;9.80;;
9082;SDS011;4577;48.704;9.000;2023-06-26T01:34:17;11.30;;;8.97;;
9082;SDS011;4577;48.704;9.000;2023-06-26T01:36:46;10.63;;;8.87;;
9082;SDS011;4577;48.704;9.000;2023-06-26T01:39:15;13.83;;;9.60;;
9082;SDS011;4577;48.704;9.000;2023-06-26T01:41:42;11.73;;;9.50;;
9082;SDS011;4577;48.704;9.000;2023-06-26T01:44:11;10.30;;;9.20;;
9082;SDS011;4577;48.704;9.000;2023-06-26T01:58:05;12.10;;;10.17;;
9082;SDS011;4577;48.704;9.000;2023-06-26T02:00:31;12.10;;;9.50;;
9082;SDS011;4577;48.704;9.000;2023-06-26T02:02:58;12.30;;;10.43;;
9082;SDS011;4577;48.704;9.000;2023-06-26T02:05:24;12.27;;;10.17;;
9082;SDS011;4577;48.704;9.000;2023-06-26T02:07:49;11.87;;;9.83;;
9082;SDS011;4577;48.704;9.000;2023-06-26T02:10:16;11.13;;;9.67;;
9082;SDS011;4577;48.704;9.000;2023-06-26T02:12:42;18.93;;;10.30;;
9082;SDS011;4577;48.704;9.000;2023-06-26T02:15:08;11.50;;;9.80;;
9082;SDS011;4577;48.704;9.000;2023-06-26T02:17:34;15.80;;;9.70;;
9082;SDS011;4577;48.704;9.000;2023-06-26T02:20:00;11.83;;;9.50;;
9082;SDS011;4577;48.704;9.000;2023-06-26T02:22:25;11.97;;;9.63;;
9082;SDS011;4577;48.704;9.000;2023-06-26T02:24:53;11.93;;;9.40;;
9082;SDS011;4577;48.704;9.000;2023-06-26T02:27:19;12.30;;;9.43;;
9082;SDS011;4577;48.704;9.000;2023-06-26T02:29:45;13.97;;;10.87;;
9082;SDS011;4577;48.704;9.000;2023-06-26T02:32:11;13.13;;;11.47;;
9082;SDS011;4577;48.704;9.000;2023-06-26T02:34:36;17.40;;;13.83;;
9082;SDS011;4577;48.704;9.000;2023-06-26T02:37:02;16.63;;;13.13;;
9082;SDS011;4577;48.704;9.000;2023-06-26T02:39:28;17.20;;;12.70;;
9082;SDS011;4577;48.704;9.000;2023-06-26T02:41:53;13.53;;;11.47;;
9082;SDS011;4577;48.704;9.000;2023-06-26T02:44:19;18.87;;;13.80;;
9082;SDS011;4577;48.704;9.000;2023-06-26T02:46:46;27.00;;;19.07;;
9082;SDS011;4577;48.704;9.000;2023-06-26T02:49:11;22.70;;;16.80;;
9082;SDS011;4577;48.704;9.000;2023-06-26T02:51:37;14.30;;;12.27;;
9082;SDS011;4577;48.704;9.000;2023-06-26T02:54:03;15.47;;;11.80;;
9082;SDS011;4577;48.704;9.000;2023-06-26T02:56:29;40.00;;;28.60;;
9082;SDS011;4577;48.704;9.000;2023-06-26T02:58:55;26.10;;;16.20;;
9082;SDS011;4577;48.704;9.000;2023-06-26T03:01:21;32.17;;;15.60;;
9082;SDS011;4577;48.704;9.000;2023-06-26T03:03:47;22.80;;;13.60;;
9082;SDS011;4577;48.704;9.000;2023-06-26T03:06:13;18.97;;;11.17;;
9082;SDS011;4577;48.704;9.000;2023-06-26T03:08:39;15.30;;;11.00;;
9082;SDS011;4577;48.704;9.000;2023-06-26T03:11:05;26.97;;;16.17;;
9082;SDS011;4577;48.704;9.000;2023-06-26T03:13:32;25.03;;;17.17;;
9082;SDS011;4577;48.704;9.000;2023-06-26T03:15:59;15.53;;;12.93;;
9082;SDS011;4577;48.704;9.000;2023-06-26T03:18:25;13.40;;;10.57;;
9082;SDS011;4577;48.704;9.000;2023-06-26T03:20:50;19.50;;;9.67;;
9082;SDS011;4577;48.704;9.000;2023-06-26T03:23:19;15.77;;;10.87;;
9082;SDS011;4577;48.704;9.000;2023-06-26T03:25:45;12.87;;;10.30;;
9082;SDS011;4577;48.704;9.000;2023-06-26T03:28:11;28.43;;;12.20;;
9082;SDS011;4577;48.704;9.000;2023-06-26T03:30:37;19.07;;;10.17;;
9082;SDS011;4577;48.704;9.000;2023-06-26T03:33:02;11.10;;;9.87;;
9082;SDS011;4577;48.704;9.000;2023-06-26T03:35:28;14.07;;;10.20;;
9082;SDS011;4577;48.704;9.000;2023-06-26T03:37:54;12.67;;;10.20;;
9082;SDS011;4577;48.704;9.000;2023-06-26T03:40:19;14.47;;;10.40;;
9082;SDS011;4577;48.704;9.000;2023-06-26T03:42:45;12.83;;;10.07;;
9082;SDS011;4577;48.704;9.000;2023-06-26T03:45:11;11.40;;;9.47;;
9082;SDS011;4577;48.704;9.000;2023-06-26T03:47:36;12.10;;;9.37;;
9082;SDS011;4577;48.704;9.000;2023-06-26T03:50:02;15.93;;;10.40;;
9082;SDS011;4577;48.704;9.000;2023-06-26T03:52:28;13.70;;;10.27;;
9082;SDS011;4577;48.704;9.000;2023-06-26T03:54:55;19.57;;;14.87;;
9082;SDS011;4577;48.704;9.000;2023-06-26T03:57:24;15.53;;;11.90;;
9082;SDS011;4577;48.704;9.000;2023-06-26T03:59:50;55.43;;;15.07;;
9082;SDS011;4577;48.704;9.000;2023-06-26T04:02:17;22.90;;;11.40;;
9082;SDS011;4577;48.704;9.000;2023-06-26T04:04:42;23.40;;;12.03;;
9082;SDS011;4577;48.704;9.000;2023-06-26T04:07:08;14.37;;;11.30;;
9082;SDS011;4577;48.704;9.000;2023-06-26T04:09:34;25.73;;;11.80;;
9082;SDS011;4577;48.704;9.000;2023-06-26T04:11:59;15.93;;;11.23;;
9082;SDS011;4577;48.704;9.000;2023-06-26T04:14:26;16.00;;;10.70;;
9082;SDS011;4577;48.704;9.000;2023-06-26T04:16:51;12.70;;;10.30;;
9082;SDS011;4577;48.704;9.000;2023-06-26T04:19:17;17.37;;;10.50;;
9082;SDS011;4577;48.704;9.000;2023-06-26T04:21:43;11.73;;;9.93;;
9082;SDS011;4577;48.704;9.000;2023-06-26T04:24:09;19.20;;;11.10;;
9082;SDS011;4577;48.704;9.000;2023-06-26T04:26:34;20.50;;;10.97;;
9082;SDS011;4577;48.704;9.000;2023-06-26T04:29:00;16.03;;;10.83;;
9082;SDS011;4577;48.704;9.000;2023-06-26T04:31:26;15.40;;;10.97;;
9082;SDS011;4577;48.704;9.000;2023-06-26T04:33:51;17.70;;;11.10;;
9082;SDS011;4577;48.704;9.000;2023-06-26T04:36:20;15.90;;;10.30;;
9082;SDS011;4577;48.704;9.000;2023-06-26T04:38:46;15.40;;;11.03;;
9082;SDS011;4577;48.704;9.000;2023-06-26T04:41:13;12.67;;;10.10;;
9082;SDS011;4577;48.704;9.000;2023-06-26T04:43:39;19.03;;;10.87;;
9082;SDS011;4577;48.704;9.000;2023-06-26T04:46:05;28.13;;;11.07;;
9082;SDS011;4577;48.704;9.000;2023-06-26T04:48:31;29.50;;;12.50;;
9082;SDS011;4577;48.704;9.000;2023-06-26T04:50:57;27.37;;;11.70;;
9082;SDS011;4577;48.704;9.000;2023-06-26T04:53:24;18.47;;;11.20;;
9082;SDS011;4577;48.704;9.000;2023-06-26T04:55:50;18.60;;;11.30;;
9082;SDS011;4577;48.704;9.000;2023-06-26T04:58:16;30.93;;;12.63;;
9082;SDS011;4577;48.704;9.000;2023-06-26T05:00:42;14.93;;;11.43;;
9082;SDS011;4577;48.704;9.000;2023-06-26T05:03:11;17.23;;;11.10;;
9082;SDS011;4577;48.704;9.000;2023-06-26T05:05:38;14.77;;;12.03;;
9082;SDS011;4577;48.704;9.000;2023-06-26T05:08:21;13.60;;;11.50;;
9082;SDS011;4577;48.704;9.000;2023-06-26T05:10:48;15.67;;;11.30;;
9082;SDS011;4577;48.704;9.000;2023-06-26T05:13:14;16.50;;;11.23;;
9082;SDS011;4577;48.704;9.000;2023-06-26T05:15:45;17.23;;;11.50;;
9082;SDS011;4577;48.704;9.000;2023-06-26T05:18:11;18.17;;;11.20;;
9082;SDS011;4577;48.704;9.000;2023-06-26T05:20:37;18.83;;;12.50;;
9082;SDS011;4577;48.704;9.000;2023-06-26T05:23:04;14.90;;;11.30;;
9082;SDS011;4577;48.704;9.000;2023-06-26T05:25:30;20.43;;;11.80;;
9082;SDS011;4577;48.704;9.000;2023-06-26T05:27:57;39.63;;;12.53;;
9082;SDS011;4577;48.704;9.000;2023-06-26T05:30:26;18.97;;;11.20;;
9082;SDS011;4577;48.704;9.000;2023-06-26T05:32:53;19.00;;;11.23;;
9082;SDS011;4577;48.704;9.000;2023-06-26T05:35:22;15.57;;;10.60;;
9082;SDS011;4577;48.704;9.000;2023-06-26T05:37:48;13.97;;;9.93;;
9082;SDS011;4577;48.704;9.000;2023-06-26T05:40:15;11.07;;;8.90;;
9082;SDS011;4577;48.704;9.000;2023-06-26T05:42:42;12.70;;;9.10;;
9082;SDS011;4577;48.704;9.000;2023-06-26T05:45:09;28.60;;;11.80;;
9082;SDS011;4577;48.704;9.000;2023-06-26T05:47:35;15.23;;;9.67;;
9082;SDS011;4577;48.704;9.000;2023-06-26T05:50:00;12.50;;;9.27;;
9082;SDS011;4577;48.704;9.000;2023-06-26T05:52:26;14.20;;;10.20;;
9082;SDS011;4577;48.704;9.000;2023-06-26T05:54:52;13.70;;;10.53;;
9082;SDS011;4577;48.704;9.000;2023-06-26T05:57:20;14.00;;;10.27;;
9082;SDS011;4577;48.704;9.000;2023-06-26T05:59:46;15.10;;;9.13;;
9082;SDS011;4577;48.704;9.000;2023-06-26T06:02:12;12.30;;;9.13;;
9082;SDS011;4577;48.704;9.000;2023-06-26T06:04:39;15.93;;;8.90;;
9082;SDS011;4577;48.704;9.000;2023-06-26T06:07:04;10.77;;;7.97;;
9082;SDS011;4577;48.704;9.000;2023-06-26T06:09:30;9.50;;;8.27;;
9082;SDS011;4577;48.704;9.000;2023-06-26T06:11:56;10.30;;;8.57;;
9082;SDS011;4577;48.704;9.000;2023-06-26T06:14:21;10.87;;;8.40;;
9082;SDS011;4577;48.704;9.000;2023-06-26T06:16:47;10.90;;;9.00;;
9082;SDS011;4577;48.704;9.000;2023-06-26T06:19:13;10.10;;;8.20;;
9082;SDS011;4577;48.704;9.000;2023-06-26T06:21:38;12.63;;;8.83;;
9082;SDS011;4577;48.704;9.000;2023-06-26T06:24:04;10.90;;;8.50;;
9082;SDS011;4577;48.704;9.000;2023-06-26T06:26:32;11.43;;;8.27;;
9082;SDS011;4577;48.704;9.000;2023-06-26T06:28:58;11.80;;;8.83;;
9082;SDS011;4577;48.704;9.000;2023-06-26T06:31:23;11.60;;;8.77;;
9082;SDS011;4577;48.704;9.000;2023-06-26T06:33:49;11.73;;;8.63;;
9082;SDS011;4577;48.704;9.000;2023-06-26T06:36:15;12.77;;;8.87;;
9082;SDS011;4577;48.704;9.000;2023-06-26T06:38:43;13.60;;;8.90;;
9082;SDS011;4577;48.704;9.000;2023-06-26T06:41:09;12.60;;;9.70;;
9082;SDS011;4577;48.704;9.000;2023-06-26T06:43:35;11.27;;;8.97;;
9082;SDS011;4577;48.704;9.000;2023-06-26T06:46:01;14.70;;;9.20;;
9082;SDS011;4577;48.704;9.000;2023-06-26T06:48:27;13.13;;;9.43;;
9082;SDS011;4577;48.704;9.000;2023-06-26T06:50:53;13.97;;;8.70;;
9082;SDS011;4577;48.704;9.000;2023-06-26T06:53:18;14.00;;;8.70;;
9082;SDS011;4577;48.704;9.000;2023-06-26T06:55:48;12.90;;;9.67;;
9082;SDS011;4577;48.704;9.000;2023-06-26T06:58:16;11.07;;;9.13;;
9082;SDS011;4577;48.704;9.000;2023-06-26T07:00:44;12.27;;;8.63;;
9082;SDS011;4577;48.704;9.000;2023-06-26T07:03:10;8.80;;;7.90;;
9082;SDS011;4577;48.704;9.000;2023-06-26T07:05:36;13.50;;;9.43;;
9082;SDS011;4577;48.704;9.000;2023-06-26T07:08:02;10.60;;;8.60;;
9082;SDS011;4577;48.704;9.000;2023-06-26T07:10:28;12.40;;;8.10;;
9082;SDS011;4577;48.704;9.000;2023-06-26T07:12:54;10.60;;;7.80;;
9082;SDS011;4577;48.704;9.000;2023-06-26T07:15:19;9.93;;;7.37;;
9082;SDS011;4577;48.704;9.000;2023-06-26T07:17:45;14.40;;;7.70;;
9082;SDS011;4577;48.704;9.000;2023-06-26T07:20:11;14.23;;;8.47;;
9082;SDS011;4577;48.704;9.000;2023-06-26T07:22:40;12.73;;;6.90;;
9082;SDS011;4577;48.704;9.000;2023-06-26T07:25:07;10.07;;;7.37;;
9082;SDS011;4577;48.704;9.000;2023-06-26T07:27:39;9.10;;;8.00;;
9082;SDS011;4577;48.704;9.000;2023-06-26T07:30:05;15.87;;;8.13;;
9082;SDS011;4577;48.704;9.000;2023-06-26T07:32:33;8.67;;;6.80;;
9082;SDS011;4577;48.704;9.000;2023-06-26T07:34:59;29.83;;;8.00;;
9082;SDS011;4577;48.704;9.000;2023-06-26T07:37:25;11.07;;;7.83;;
9082;SDS011;4577;48.704;9.000;2023-06-26T07:39:51;20.77;;;8.30;;
9082;SDS011;4577;48.704;9.000;2023-06-26T07:42:16;11.97;;;8.60;;
9082;SDS011;4577;48.704;9.000;2023-06-26T07:44:42;9.23;;;8.10;;
9082;SDS011;4577;48.704;9.000;2023-06-26T07:47:08;17.17;;;7.90;;
9082;SDS011;4577;48.704;9.000;2023-06-26T07:49:40;8.07;;;6.83;;
9082;SDS011;4577;48.704;9.000;2023-06-26T07:52:06;8.50;;;6.27;;
9082;SDS011;4577;48.704;9.000;2023-06-26T07:54:32;6.60;;;5.93;;
9082;SDS011;4577;48.704;9.000;2023-06-26T07:57:01;10.57;;;5.80;;
9082;SDS011;4577;48.704;9.000;2023-06-26T07:59:29;6.27;;;5.13;;
9082;SDS011;4577;48.704;9.000;2023-06-26T08:01:56;6.80;;;5.67;;
9082;SDS011;4577;48.704;9.000;2023-06-26T08:04:23;6.67;;;5.73;;
9082;SDS011;4577;48.704;9.000;2023-06-26T08:06:54;6.83;;;6.13;;
9082;SDS011;4577;48.704;9.000;2023-06-26T08:09:22;12.50;;;6.00;;
9082;SDS011;4577;48.704;9.000;2023-06-26T08:11:49;9.70;;;5.93;;
9082;SDS011;4577;48.704;9.000;2023-06-26T08:14:15;8.40;;;5.60;;
9082;SDS011;4577;48.704;9.000;2023-06-26T08:16:42;7.90;;;5.80;;
9082;SDS011;4577;48.704;9.000;2023-06-26T08:19:14;7.60;;;5.87;;
9082;SDS011;4577;48.704;9.000;2023-06-26T08:21:41;8.00;;;5.80;;
9082;SDS011;4577;48.704;9.000;2023-06-26T08:24:08;9.53;;;5.97;;
9082;SDS011;4577;48.704;9.000;2023-06-26T08:26:34;6.40;;;5.57;;
9082;SDS011;4577;48.704;9.000;2023-06-26T08:29:00;6.70;;;6.03;;
9082;SDS011;4577;48.704;9.000;2023-06-26T08:31:32;12.10;;;6.00;;
9082;SDS011;4577;48.704;9.000;2023-06-26T08:33:59;9.80;;;6.13;;
9082;SDS011;4577;48.704;9.000;2023-06-26T08:36:25;9.00;;;5.80;;
9082;SDS011;4577;48.704;9.000;2023-06-26T08:38:51;11.20;;;6.43;;
9082;SDS011;4577;48.704;9.000;2023-06-26T08:41:16;7.43;;;5.57;;
9082;SDS011;4577;48.704;9.000;2023-06-26T08:43:42;14.90;;;6.40;;
9082;SDS011;4577;48.704;9.000;2023-06-26T08:46:08;8.47;;;6.97;;
9082;SDS011;4577;48.704;9.000;2023-06-26T08:48:34;13.80;;;6.33;;
9082;SDS011;4577;48.704;9.000;2023-06-26T08:51:12;7.83;;;7.03;;
9082;SDS011;4577;48.704;9.000;2023-06-26T08:56:07;11.53;;;6.37;;
9082;SDS011;4577;48.704;9.000;2023-06-26T08:58:34;6.43;;;5.80;;
9082;SDS011;4577;48.704;9.000;2023-06-26T09:01:02;8.00;;;6.23;;
9082;SDS011;4577;48.704;9.000;2023-06-26T09:03:30;11.43;;;6.40;;
9082;SDS011;4577;48.704;9.000;2023-06-26T09:05:57;7.43;;;6.73;;
9082;SDS011;4577;48.704;9.000;2023-06-26T09:08:22;9.40;;;6.47;;
9082;SDS011;4577;48.704;9.000;2023-06-26T09:10:48;7.40;;;6.70;;
9082;SDS011;4577;48.704;9.000;2023-06-26T09:13:14;9.00;;;6.33;;
9082;SDS011;4577;48.704;9.000;2023-06-26T09:15:43;9.63;;;6.83;;
9082;SDS011;4577;48.704;9.000;2023-06-26T09:18:09;11.07;;;6.80;;
9082;SDS011;4577;48.704;9.000;2023-06-26T09:20:35;8.83;;;6.73;;
9082;SDS011;4577;48.704;9.000;2023-06-26T09:23:01;7.30;;;6.60;;
9082;SDS011;4577;48.704;9.000;2023-06-26T09:25:32;12.93;;;6.17;;
9082;SDS011;4577;48.704;9.000;2023-06-26T09:27:58;7.80;;;6.30;;
9082;SDS011;4577;48.704;9.000;2023-06-26T09:30:24;9.80;;;6.63;;
9082;SDS011;4577;48.704;9.000;2023-06-26T09:32:50;7.13;;;6.17;;
9082;SDS011;4577;48.704;9.000;2023-06-26T09:35:16;7.40;;;6.10;;
9082;SDS011;4577;48.704;9.000;2023-06-26T09:37:42;6.90;;;6.20;;
9082;SDS011;4577;48.704;9.000;2023-06-26T09:40:08;10.70;;;9.40;;
9082;SDS011;4577;48.704;9.000;2023-06-26T09:42:34;8.63;;;6.93;;
9082;SDS011;4577;48.704;9.000;2023-06-26T09:45:01;7.83;;;6.07;;
9082;SDS011;4577;48.704;9.000;2023-06-26T09:47:29;7.97;;;6.17;;
9082;SDS011;4577;48.704;9.000;2023-06-26T09:49:56;14.63;;;6.77;;
9082;SDS011;4577;48.704;9.000;2023-06-26T09:52:21;9.43;;;6.60;;
9082;SDS011;4577;48.704;9.000;2023-06-26T09:54:51;7.17;;;6.30;;
9082;SDS011;4577;48.704;9.000;2023-06-26T09:57:34;12.90;;;6.97;;
9082;SDS011;4577;48.704;9.000;2023-06-26T09:59:59;13.30;;;6.90;;
9082;SDS011;4577;48.704;9.000;2023-06-26T10:02:26;8.00;;;6.27;;
9082;SDS011;4577;48.704;9.000;2023-06-26T10:04:52;7.30;;;5.90;;
9082;SDS011;4577;48.704;9.000;2023-06-26T10:07:18;14.20;;;6.53;;
9082;SDS011;4577;48.704;9.000;2023-06-26T10:09:45;9.60;;;6.70;;
9082;SDS011;4577;48.704;9.000;2023-06-26T10:14:51;9.37;;;6.80;;
9082;SDS011;4577;48.704;9.000;2023-06-26T10:17:19;6.43;;;5.80;;
9082;SDS011;4577;48.704;9.000;2023-06-26T10:19:46;9.10;;;6.70;;
9082;SDS011;4577;48.704;9.000;2023-06-26T10:22:14;7.83;;;6.73;;
9082;SDS011;4577;48.704;9.000;2023-06-26T10:24:42;9.67;;;7.13;;
9082;SDS011;4577;48.704;9.000;2023-06-26T10:27:14;11.70;;;7.10;;
9082;SDS011;4577;48.704;9.000;2023-06-26T10:29:43;9.03;;;7.73;;
9082;SDS011;4577;48.704;9.000;2023-06-26T10:32:18;8.33;;;7.30;;
9082;SDS011;4577;48.704;9.000;2023-06-26T10:34:46;12.93;;;6.90;;
9082;SDS011;4577;48.704;9.000;2023-06-26T10:37:12;14.97;;;7.60;;
9082;SDS011;4577;48.704;9.000;2023-06-26T10:39:51;16.70;;;8.00;;
9082;SDS011;4577;48.704;9.000;2023-06-26T10:42:19;12.90;;;7.17;;
9082;SDS011;4577;48.704;9.000;2023-06-26T10:47:45;9.83;;;7.90;;
9082;SDS011;4577;48.704;9.000;2023-06-26T10:50:18;11.80;;;8.00;;
9082;SDS011;4577;48.704;9.000;2023-06-26T10:55:50;11.17;;;7.97;;
9082;SDS011;4577;48.704;9.000;2023-06-26T10:58:30;12.13;;;7.77;;
9082;SDS011;4577;48.704;9.000;2023-06-26T11:01:23;9.33;;;8.30;;
9082;SDS011;4577;48.704;9.000;2023-06-26T11:06:27;9.27;;;7.57;;
9082;SDS011;4577;48.704;9.000;2023-06-26T11:08:54;9.73;;;7.93;;
9082;SDS011;4577;48.704;9.000;2023-06-26T11:12:10;11.30;;;8.23;;
9082;SDS011;4577;48.704;9.000;2023-06-26T11:14:20;19.43;;;7.73;;
9082;SDS011;4577;48.704;9.000;2023-06-26T11:16:46;12.23;;;8.10;;
9082;SDS011;4577;48.704;9.000;2023-06-26T11:19:13;10.03;;;7.90;;
9082;SDS011;4577;48.704;9.000;2023-06-26T11:21:40;10.33;;;7.87;;
9082;SDS011;4577;48.704;9.000;2023-06-26T11:24:06;10.13;;;8.07;;
9082;SDS011;4577;48.704;9.000;2023-06-26T11:26:41;10.73;;;7.67;;
9082;SDS011;4577;48.704;9.000;2023-06-26T11:29:08;10.63;;;8.40;;
9082;SDS011;4577;48.704;9.000;2023-06-26T11:31:35;12.90;;;8.30;;
9082;SDS011;4577;48.704;9.000;2023-06-26T11:34:10;9.20;;;7.67;;
9082;SDS011;4577;48.704;9.000;2023-06-26T11:36:38;8.57;;;7.70;;
9082;SDS011;4577;48.704;9.000;2023-06-26T11:39:05;12.97;;;8.10;;
9082;SDS011;4577;48.704;9.000;2023-06-26T11:41:31;9.77;;;7.60;;
9082;SDS011;4577;48.704;9.000;2023-06-26T11:44:09;13.47;;;7.30;;
9082;SDS011;4577;48.704;9.000;2023-06-26T11:46:35;10.50;;;7.87;;
9082;SDS011;4577;48.704;9.000;2023-06-26T11:49:05;9.33;;;7.80;;
9082;SDS011;4577;48.704;9.000;2023-06-26T11:51:32;11.50;;;8.03;;
9082;SDS011;4577;48.704;9.000;2023-06-26T11:54:00;10.00;;;7.50;;
9082;SDS011;4577;48.704;9.000;2023-06-26T11:56:30;9.77;;;8.00;;
9082;SDS011;4577;48.704;9.000;2023-06-26T12:01:22;11.40;;;7.77;;
9082;SDS011;4577;48.704;9.000;2023-06-26T12:03:49;8.40;;;7.47;;
9082;SDS011;4577;48.704;9.000;2023-06-26T12:06:15;8.73;;;7.83;;
9082;SDS011;4577;48.704;9.000;2023-06-26T12:08:41;10.43;;;7.90;;
9082;SDS011;4577;48.704;9.000;2023-06-26T12:11:08;11.20;;;8.20;;
9082;SDS011;4577;48.704;9.000;2023-06-26T12:13:34;10.70;;;7.77;;
9082;SDS011;4577;48.704;9.000;2023-06-26T12:16:00;9.77;;;7.27;;
9082;SDS011;4577;48.704;9.000;2023-06-26T12:18:25;8.90;;;7.73;;
9082;SDS011;4577;48.704;9.000;2023-06-26T12:20:58;10.37;;;7.70;;
9082;SDS011;4577;48.704;9.000;2023-06-26T12:23:23;8.57;;;7.50;;
9082;SDS011;4577;48.704;9.000;2023-06-26T12:25:49;9.43;;;7.17;;
9082;SDS011;4577;48.704;9.000;2023-06-26T12:28:17;9.67;;;7.80;;
9082;SDS011;4577;48.704;9.000;2023-06-26T12:30:47;12.90;;;7.10;;
9082;SDS011;4577;48.704;9.000;2023-06-26T12:33:33;11.40;;;7.20;;
9082;SDS011;4577;48.704;9.000;2023-06-26T12:35:59;9.37;;;7.53;;
9082;SDS011;4577;48.704;9.000;2023-06-26T12:38:32;12.00;;;7.53;;
9082;SDS011;4577;48.704;9.000;2023-06-26T12:41:13;9.10;;;7.07;;
9082;SDS011;4577;48.704;9.000;2023-06-26T12:43:43;10.70;;;7.27;;
9082;SDS011;4577;48.704;9.000;2023-06-26T12:46:08;9.37;;;7.33;;
9082;SDS011;4577;48.704;9.000;2023-06-26T12:51:11;13.40;;;8.17;;
9082;SDS011;4577;48.704;9.000;2023-06-26T12:53:38;9.37;;;7.40;;
9082;SDS011;4577;48.704;9.000;2023-06-26T12:56:07;11.50;;;7.60;;
9082;SDS011;4577;48.704;9.000;2023-06-26T12:58:34;9.27;;;7.47;;
9082;SDS011;4577;48.704;9.000;2023-06-26T13:01:04;10.43;;;7.30;;
9082;SDS011;4577;48.704;9.000;2023-06-26T13:03:32;10.80;;;7.07;;
9082;SDS011;4577;48.704;9.000;2023-06-26T13:05:58;9.90;;;7.83;;
9082;SDS011;4577;48.704;9.000;2023-06-26T13:08:24;10.43;;;7.50;;
9082;SDS011;4577;48.704;9.000;2023-06-26T13:10:49;8.73;;;7.13;;
9082;SDS011;4577;48.704;9.000;2023-06-26T13:13:16;10.13;;;7.40;;
9082;SDS011;4577;48.704;9.000;2023-06-26T13:15:42;9.80;;;7.60;;
9082;SDS011;4577;48.704;9.000;2023-06-26T13:18:07;12.70;;;7.33;;
9082;SDS011;4577;48.704;9.000;2023-06-26T13:20:33;8.50;;;6.80;;
9082;SDS011;4577;48.704;9.000;2023-06-26T13:22:58;7.73;;;6.93;;
9082;SDS011;4577;48.704;9.000;2023-06-26T13:25:24;7.80;;;6.40;;
9082;SDS011;4577;48.704;9.000;2023-06-26T13:27:50;6.93;;;6.00;;
9082;SDS011;4577;48.704;9.000;2023-06-26T13:30:15;9.03;;;6.40;;
9082;SDS011;4577;48.704;9.000;2023-06-26T13:32:41;7.83;;;6.40;;
9082;SDS011;4577;48.704;9.000;2023-06-26T13:35:08;7.20;;;6.50;;
9082;SDS011;4577;48.704;9.000;2023-06-26T13:37:38;11.10;;;7.10;;
9082;SDS011;4577;48.704;9.000;2023-06-26T13:40:05;8.03;;;6.80;;
9082;SDS011;4577;48.704;9.000;2023-06-26T13:42:32;11.53;;;6.30;;
9082;SDS011;4577;48.704;9.000;2023-06-26T13:44:58;10.57;;;6.43;;
9082;SDS011;4577;48.704;9.000;2023-06-26T13:47:24;6.53;;;5.90;;
9082;SDS011;4577;48.704;9.000;2023-06-26T13:49:50;13.10;;;6.10;;
9082;SDS011;4577;48.704;9.000;2023-06-26T13:52:15;7.10;;;5.93;;
9082;SDS011;4577;48.704;9.000;2023-06-26T13:54:41;7.20;;;5.80;;
9082;SDS011;4577;48.704;9.000;2023-06-26T13:57:07;6.40;;;5.77;;
9082;SDS011;4577;48.704;9.000;2023-06-26T13:59:33;8.13;;;6.20;;
9082;SDS011;4577;48.704;9.000;2023-06-26T14:02:02;7.30;;;5.83;;
9082;SDS011;4577;48.704;9.000;2023-06-26T14:04:27;9.37;;;5.47;;
9082;SDS011;4577;48.704;9.000;2023-06-26T14:06:53;6.40;;;5.30;;
9082;SDS011;4577;48.704;9.000;2023-06-26T14:09:19;11.33;;;5.80;;
9082;SDS011;4577;48.704;9.000;2023-06-26T14:11:44;6.40;;;5.50;;
9082;SDS011;4577;48.704;9.000;2023-06-26T14:14:10;5.63;;;5.10;;
9082;SDS011;4577;48.704;9.000;2023-06-26T14:16:36;9.20;;;5.33;;
9082;SDS011;4577;48.704;9.000;2023-06-26T14:19:01;6.37;;;5.27;;
9082;SDS011;4577;48.704;9.000;2023-06-26T14:21:27;6.30;;;5.47;;
9082;SDS011;4577;48.704;9.000;2023-06-26T14:23:54;6.00;;;5.23;;
9082;SDS011;4577;48.704;9.000;2023-06-26T14:26:20;5.93;;;5.33;;
9082;SDS011;4577;48.704;9.000;2023-06-26T14:28:46;6.80;;;5.13;;
9082;SDS011;4577;48.704;9.000;2023-06-26T14:31:12;9.67;;;4.53;;
9082;SDS011;4577;48.704;9.000;2023-06-26T14:33:38;5.90;;;4.30;;
9082;SDS011;4577;48.704;9.000;2023-06-26T14:36:04;4.80;;;4.07;;
9082;SDS011;4577;48.704;9.000;2023-06-26T14:38:30;8.10;;;4.27;;
9082;SDS011;4577;48.704;9.000;2023-06-26T14:40:55;5.87;;;3.90;;
9082;SDS011;4577;48.704;9.000;2023-06-26T14:43:21;5.20;;;4.30;;
9082;SDS011;4577;48.704;9.000;2023-06-26T14:45:47;5.00;;;4.40;;
9082;SDS011;4577;48.704;9.000;2023-06-26T14:48:13;6.37;;;4.03;;
9082;SDS011;4577;48.704;9.000;2023-06-26T14:50:39;5.57;;;4.20;;
9082;SDS011;4577;48.704;9.000;2023-06-26T14:53:05;9.00;;;4.07;;
9082;SDS011;4577;48.704;9.000;2023-06-26T14:55:30;5.17;;;3.90;;
9082;SDS011;4577;48.704;9.000;2023-06-26T14:57:56;6.60;;;4.30;;
9082;SDS011;4577;48.704;9.000;2023-06-26T15:00:22;5.27;;;4.13;;
9082;SDS011;4577;48.704;9.000;2023-06-26T15:02:47;8.00;;;4.13;;
9082;SDS011;4577;48.704;9.000;2023-06-26T15:05:13;5.47;;;4.33;;
9082;SDS011;4577;48.704;9.000;2023-06-26T15:07:39;10.80;;;4.73;;
9082;SDS011;4577;48.704;9.000;2023-06-26T15:10:05;8.60;;;5.53;;
9082;SDS011;4577;48.704;9.000;2023-06-26T15:12:31;6.00;;;4.87;;
9082;SDS011;4577;48.704;9.000;2023-06-26T15:14:57;8.83;;;5.10;;
9082;SDS011;4577;48.704;9.000;2023-06-26T15:17:23;5.00;;;4.50;;
9082;SDS011;4577;48.704;9.000;2023-06-26T15:19:49;8.87;;;4.60;;
9082;SDS011;4577;48.704;9.000;2023-06-26T15:22:17;6.93;;;4.87;;
9082;SDS011;4577;48.704;9.000;2023-06-26T15:24:43;5.50;;;4.57;;
9082;SDS011;4577;48.704;9.000;2023-06-26T15:27:08;5.60;;;5.00;;
9082;SDS011;4577;48.704;9.000;2023-06-26T15:29:34;7.73;;;5.27;;
9082;SDS011;4577;48.704;9.000;2023-06-26T15:32:00;6.43;;;4.73;;